createdAt,value
2019-02-19T00:01:08.262Z,42.27
2019-02-19T00:03:37.775Z,47.98
2019-02-19T00:06:07.305Z,39.35
2019-02-19T00:08:37.125Z,42.38
2019-02-19T00:11:06.584Z,39.83
2019-02-19T00:13:36.125Z,38.53
2019-02-19T00:16:06.007Z,38.70
2019-02-19T00:18:35.870Z,45.08
2019-02-19T00:21:05.378Z,41.00
2019-02-19T00:23:34.883Z,44.03
2019-02-19T00:26:13.258Z,52.20
2019-02-19T00:28:42.900Z,43.45
2019-02-19T00:31:12.554Z,43.90
2019-02-19T00:33:42.406Z,39.88
2019-02-19T00:36:11.910Z,38.23
2019-02-19T00:38:41.434Z,39.05
2019-02-19T00:41:10.917Z,43.05
2019-02-19T00:43:40.731Z,39.53
2019-02-19T00:46:10.228Z,37.58
2019-02-19T00:48:39.715Z,40.52
2019-02-19T00:51:09.194Z,39.48
2019-02-19T00:53:38.667Z,42.80
2019-02-19T00:56:08.217Z,39.40
2019-02-19T00:58:37.684Z,39.65
2019-02-19T01:01:07.613Z,43.60
2019-02-19T01:03:37.097Z,49.20
2019-02-19T01:06:06.903Z,50.33
2019-02-19T01:08:36.445Z,53.80
2019-02-19T01:11:06.432Z,48.92
2019-02-19T01:13:35.918Z,53.08
2019-02-19T01:16:05.490Z,40.92
2019-02-19T01:18:34.980Z,42.08
2019-02-19T01:21:04.478Z,45.48
2019-02-19T01:23:33.964Z,44.33
2019-02-19T01:26:03.504Z,47.27
2019-02-19T01:28:33.013Z,42.13
2019-02-19T01:31:02.484Z,46.23
2019-02-19T01:33:31.976Z,48.50
2019-02-19T01:36:01.479Z,52.73
2019-02-19T01:38:31.030Z,57.10
2019-02-19T01:41:00.513Z,52.62
2019-02-19T01:43:29.987Z,49.58
2019-02-19T01:45:59.914Z,48.30
2019-02-19T01:48:29.720Z,49.10
2019-02-19T01:50:59.233Z,50.90
2019-02-19T01:53:28.718Z,47.27
2019-02-19T01:55:58.212Z,49.42
2019-02-19T01:58:28.081Z,44.85
2019-02-19T02:00:57.599Z,55.50
2019-02-19T02:03:27.084Z,61.83
2019-02-19T02:05:56.561Z,48.40
2019-02-19T02:08:26.032Z,48.40
2019-02-19T02:10:55.583Z,52.80
2019-02-19T02:13:25.750Z,49.85
2019-02-19T02:15:55.230Z,49.80
2019-02-19T02:18:25.824Z,52.20
2019-02-19T02:20:55.326Z,46.60
2019-02-19T02:23:24.817Z,49.03
2019-02-19T02:25:54.390Z,50.75
2019-02-19T02:28:24.281Z,52.13
2019-02-19T02:30:53.833Z,50.92
2019-02-19T02:33:23.323Z,51.95
2019-02-19T02:35:52.839Z,50.60
2019-02-19T02:38:22.355Z,50.67
2019-02-19T02:40:51.859Z,52.43
2019-02-19T02:43:21.371Z,52.65
2019-02-19T02:45:53.742Z,56.83
2019-02-19T02:48:22.048Z,50.95
2019-02-19T02:50:51.577Z,48.87
2019-02-19T02:53:21.087Z,48.65
2019-02-19T02:55:50.610Z,47.98
2019-02-19T02:58:20.106Z,48.35
2019-02-19T03:00:49.582Z,46.48
2019-02-19T03:03:19.395Z,49.27
2019-02-19T03:06:17.212Z,47.50
2019-02-19T03:08:46.705Z,47.20
2019-02-19T03:11:16.203Z,47.62
2019-02-19T03:13:45.732Z,48.50
2019-02-19T03:16:15.250Z,47.10
2019-02-19T03:18:44.744Z,42.05
2019-02-19T03:21:14.260Z,46.45
2019-02-19T03:23:44.099Z,49.33
2019-02-19T03:26:13.629Z,51.02
2019-02-19T03:28:43.162Z,48.92
2019-02-19T03:31:12.704Z,48.10
2019-02-19T03:33:42.202Z,47.38
2019-02-19T03:36:11.731Z,46.90
2019-02-19T03:38:41.216Z,47.27
2019-02-19T03:41:10.719Z,50.45
2019-02-19T03:43:40.221Z,51.55
2019-02-19T03:46:12.372Z,47.93
2019-02-19T03:48:40.946Z,49.05
2019-02-19T03:51:10.452Z,47.17
2019-02-19T03:53:40.232Z,48.70
2019-02-19T03:56:09.706Z,47.43
2019-02-19T03:58:39.549Z,49.60
2019-02-19T04:01:09.925Z,46.20
2019-02-19T04:03:39.432Z,44.90
2019-02-19T04:06:08.931Z,46.35
2019-02-19T04:08:38.425Z,47.78
2019-02-19T04:11:07.927Z,46.20
2019-02-19T04:13:37.806Z,44.05
2019-02-19T04:16:07.335Z,44.70
2019-02-19T04:18:36.802Z,46.08
2019-02-19T04:21:06.286Z,46.50
2019-02-19T04:23:35.789Z,46.92
2019-02-19T04:26:05.299Z,47.58
2019-02-19T04:28:34.776Z,47.43
2019-02-19T04:31:04.645Z,46.37
2019-02-19T04:33:34.146Z,45.15
2019-02-19T04:36:03.609Z,43.70
2019-02-19T04:38:33.083Z,44.48
2019-02-19T04:41:02.614Z,45.00
2019-02-19T04:43:32.083Z,44.53
2019-02-19T04:46:02.104Z,45.65
2019-02-19T04:48:31.598Z,43.42
2019-02-19T04:51:01.137Z,45.33
2019-02-19T04:53:30.682Z,44.63
2019-02-19T04:56:00.438Z,44.98
2019-02-19T04:58:30.122Z,48.38
2019-02-19T05:00:59.640Z,46.55
2019-02-19T05:03:29.114Z,46.40
2019-02-19T05:05:58.640Z,46.80
2019-02-19T05:08:28.124Z,47.10
2019-02-19T05:10:57.588Z,46.50
2019-02-19T05:13:27.092Z,47.80
2019-02-19T05:15:56.568Z,46.42
2019-02-19T05:18:26.355Z,45.28
2019-02-19T05:20:56.275Z,46.25
2019-02-19T05:23:25.740Z,44.63
2019-02-19T05:25:55.321Z,44.73
2019-02-19T05:28:24.847Z,46.53
2019-02-19T05:30:54.440Z,45.55
2019-02-19T05:33:23.946Z,48.83
2019-02-19T05:35:53.490Z,46.02
2019-02-19T05:38:23.039Z,47.13
2019-02-19T05:40:52.562Z,46.53
2019-02-19T05:43:22.073Z,45.63
2019-02-19T05:45:51.579Z,47.95
2019-02-19T05:48:21.461Z,47.40
2019-02-19T05:50:50.981Z,46.23
2019-02-19T05:53:20.520Z,43.85
2019-02-19T05:55:50.056Z,46.60
2019-02-19T05:58:19.577Z,50.28
2019-02-19T06:00:49.129Z,47.15
2019-02-19T06:03:18.667Z,48.45
2019-02-19T06:05:48.182Z,50.20
2019-02-19T06:08:18.130Z,50.12
2019-02-19T06:10:47.659Z,48.85
2019-02-19T06:13:17.229Z,51.40
2019-02-19T06:15:46.786Z,50.50
2019-02-19T06:18:16.760Z,49.58
2019-02-19T06:20:46.333Z,51.15
2019-02-19T06:23:15.845Z,49.33
2019-02-19T06:25:45.353Z,48.68
2019-02-19T06:28:14.944Z,52.27
2019-02-19T06:30:44.524Z,50.12
2019-02-19T06:33:14.090Z,53.65
2019-02-19T06:35:43.592Z,57.17
2019-02-19T06:38:13.166Z,56.30
2019-02-19T06:40:42.677Z,56.18
2019-02-19T06:43:12.568Z,57.10
2019-02-19T06:45:42.066Z,52.15
2019-02-19T06:48:11.640Z,54.05
2019-02-19T06:50:41.165Z,53.58
2019-02-19T06:53:10.722Z,53.68
2019-02-19T06:55:40.210Z,54.58
2019-02-19T06:58:09.736Z,54.48
2019-02-19T07:00:39.249Z,54.50
2019-02-19T07:03:20.235Z,55.98
2019-02-19T07:05:49.741Z,55.30
2019-02-19T07:08:19.563Z,55.88
2019-02-19T07:10:49.094Z,56.77
2019-02-19T07:13:18.988Z,54.53
2019-02-19T07:15:48.487Z,57.70
2019-02-19T07:18:18.141Z,56.35
2019-02-19T07:20:48.004Z,58.58
2019-02-19T07:23:17.547Z,56.48
2019-02-19T07:25:47.060Z,58.60
2019-02-19T07:28:16.601Z,60.92
2019-02-19T07:30:46.159Z,62.00
2019-02-19T07:33:15.666Z,59.50
2019-02-19T07:35:45.195Z,61.37
2019-02-19T07:38:14.730Z,62.98
2019-02-19T07:40:44.234Z,59.88
2019-02-19T07:43:14.190Z,60.67
2019-02-19T07:45:43.730Z,57.80
2019-02-19T07:48:13.242Z,60.80
2019-02-19T07:50:42.757Z,61.77
2019-02-19T07:53:12.634Z,59.58
2019-02-19T07:55:42.142Z,59.27
2019-02-19T07:58:11.719Z,58.68
2019-02-19T08:00:41.231Z,60.78
2019-02-19T08:03:10.773Z,56.90
2019-02-19T08:05:40.369Z,57.45
2019-02-19T08:08:09.933Z,59.60
2019-02-19T08:10:41.989Z,59.65
2019-02-19T08:13:11.091Z,57.10
2019-02-19T08:15:40.598Z,58.25
2019-02-19T08:18:10.250Z,58.60
2019-02-19T08:20:40.247Z,59.88
2019-02-19T08:23:09.799Z,58.25
2019-02-19T08:25:39.359Z,58.15
2019-02-19T08:28:08.956Z,62.13
2019-02-19T08:30:40.943Z,60.15
2019-02-19T08:33:10.487Z,58.08
2019-02-19T08:35:40.047Z,57.73
2019-02-19T08:38:09.914Z,58.00
2019-02-19T08:40:39.475Z,58.30
2019-02-19T08:43:09.044Z,55.88
2019-02-19T08:45:38.582Z,51.95
2019-02-19T08:48:08.169Z,50.35
2019-02-19T08:50:37.699Z,49.45
2019-02-19T08:53:07.235Z,47.83
2019-02-19T08:55:36.831Z,50.15
2019-02-19T08:58:06.410Z,47.38
2019-02-19T09:00:35.912Z,46.90
2019-02-19T09:03:08.694Z,47.33
2019-02-19T09:05:38.208Z,43.85
2019-02-19T09:08:07.815Z,43.65
2019-02-19T09:10:37.419Z,44.83
2019-02-19T09:13:07.098Z,42.45
2019-02-19T09:15:37.139Z,41.25
2019-02-19T09:18:06.686Z,41.15
2019-02-19T09:20:36.900Z,43.38
2019-02-19T09:23:14.722Z,41.18
2019-02-19T09:25:44.690Z,44.80
2019-02-19T09:28:14.265Z,42.20
2019-02-19T09:30:43.817Z,41.40
2019-02-19T09:33:13.323Z,38.88
2019-02-19T09:35:42.834Z,38.40
2019-02-19T09:38:13.041Z,35.52
2019-02-19T09:40:42.564Z,36.03
2019-02-19T09:43:12.140Z,38.75
2019-02-19T09:45:41.958Z,36.35
2019-02-19T09:48:11.484Z,37.03
2019-02-19T09:50:41.151Z,34.18
2019-02-19T09:53:10.704Z,34.90
2019-02-19T09:55:40.241Z,33.25
2019-02-19T09:58:09.769Z,33.45
2019-02-19T10:00:39.278Z,35.40
2019-02-19T10:03:08.832Z,34.03
2019-02-19T10:05:38.345Z,32.33
2019-02-19T10:08:07.888Z,33.75
2019-02-19T10:10:37.696Z,32.58
2019-02-19T10:13:07.244Z,32.03
2019-02-19T10:15:37.129Z,25.45
2019-02-19T10:18:10.341Z,24.50
2019-02-19T10:20:37.858Z,23.65
2019-02-19T10:23:07.374Z,24.87
2019-02-19T10:25:36.875Z,24.25
2019-02-19T10:28:06.378Z,24.87
2019-02-19T10:30:36.200Z,25.20
2019-02-19T10:33:05.743Z,25.12
2019-02-19T10:35:35.224Z,23.55
2019-02-19T10:38:04.823Z,23.90
2019-02-19T10:40:34.799Z,23.87
2019-02-19T10:43:04.780Z,24.20
2019-02-19T10:45:34.294Z,24.95
2019-02-19T10:48:03.841Z,24.90
2019-02-19T10:50:33.364Z,25.37
2019-02-19T10:53:02.897Z,23.22
2019-02-19T10:55:33.155Z,25.05
2019-02-19T10:58:02.617Z,28.12
2019-02-19T11:00:32.180Z,27.15
2019-02-19T11:03:01.708Z,26.82
2019-02-19T11:05:31.242Z,26.70
2019-02-19T11:08:00.765Z,27.40
2019-02-19T11:10:30.298Z,26.65
2019-02-19T11:12:59.833Z,26.20
2019-02-19T11:15:29.377Z,26.35
2019-02-19T11:17:58.959Z,23.02
2019-02-19T11:20:29.057Z,24.25
2019-02-19T11:22:59.165Z,24.80
2019-02-19T11:25:28.703Z,28.40
2019-02-19T11:27:58.182Z,28.83
2019-02-19T11:30:27.727Z,29.23
2019-02-19T11:32:57.221Z,27.40
2019-02-19T11:35:26.777Z,29.15
2019-02-19T11:37:56.300Z,27.65
2019-02-19T11:40:25.796Z,30.32
2019-02-19T11:42:55.302Z,29.52
2019-02-19T11:45:24.810Z,27.13
2019-02-19T11:47:54.589Z,27.80
2019-02-19T11:50:24.487Z,29.52
2019-02-19T11:52:53.952Z,29.92
2019-02-19T11:55:23.432Z,28.60
2019-02-19T11:57:52.912Z,28.40
2019-02-19T12:00:26.333Z,27.93
2019-02-19T12:02:56.189Z,28.98
2019-02-19T12:05:25.659Z,29.20
2019-02-19T12:07:55.170Z,28.83
2019-02-19T12:10:24.692Z,29.70
2019-02-19T12:12:54.187Z,29.12
2019-02-19T12:15:23.678Z,27.40
2019-02-19T12:17:53.153Z,25.97
2019-02-19T12:20:22.653Z,25.72
2019-02-19T12:22:52.258Z,27.05
2019-02-19T12:25:21.714Z,29.48
2019-02-19T12:27:51.201Z,29.67
2019-02-19T12:30:20.751Z,30.02
2019-02-19T12:32:50.579Z,30.30
2019-02-19T12:35:20.083Z,31.17
2019-02-19T12:37:49.583Z,32.17
2019-02-19T12:40:19.328Z,30.02
2019-02-19T12:42:48.832Z,28.60
2019-02-19T12:45:18.312Z,30.77
2019-02-19T12:47:47.837Z,31.65
2019-02-19T12:50:17.352Z,32.60
2019-02-19T12:52:46.857Z,31.17
2019-02-19T12:55:16.344Z,31.75
2019-02-19T12:57:45.848Z,30.80
2019-02-19T13:00:16.120Z,30.20
2019-02-19T13:02:45.978Z,31.30
2019-02-19T13:05:15.479Z,32.60
2019-02-19T13:07:46.898Z,29.48
2019-02-19T13:10:16.088Z,29.32
2019-02-19T13:12:45.560Z,33.70
2019-02-19T13:15:15.470Z,31.30
2019-02-19T13:17:44.975Z,33.08
2019-02-19T13:20:14.568Z,28.42
2019-02-19T13:22:44.105Z,20.70
2019-02-19T13:25:13.621Z,21.35
2019-02-19T13:27:43.124Z,17.45
2019-02-19T13:30:14.277Z,17.37
2019-02-19T13:32:43.868Z,12.70
2019-02-19T13:35:14.458Z,12.47
2019-02-19T13:37:44.039Z,10.93
2019-02-19T13:40:14.337Z,11.33
2019-02-19T13:42:44.398Z,11.40
2019-02-19T13:45:13.980Z,11.15
2019-02-19T13:47:44.934Z,10.68
2019-02-19T13:50:16.812Z,11.70
2019-02-19T13:52:51.396Z,11.73
2019-02-19T13:55:24.426Z,12.10
2019-02-19T13:57:54.297Z,12.18
2019-02-19T14:00:24.846Z,12.20
2019-02-19T14:02:54.350Z,13.55
2019-02-19T14:05:23.891Z,13.98
2019-02-19T14:07:53.770Z,14.40
2019-02-19T14:10:23.244Z,15.00
2019-02-19T14:12:52.706Z,13.53
2019-02-19T14:15:38.181Z,14.68
2019-02-19T14:18:11.767Z,14.85
2019-02-19T14:21:15.742Z,15.78
2019-02-19T14:24:02.922Z,15.23
2019-02-19T14:26:50.399Z,13.60
2019-02-19T14:29:48.086Z,14.47
2019-02-19T14:32:42.406Z,14.30
2019-02-19T14:35:30.909Z,14.70
2019-02-19T14:38:19.615Z,14.28
2019-02-19T14:41:11.267Z,14.13
2019-02-19T14:43:54.341Z,13.05
2019-02-19T14:46:44.303Z,14.98
2019-02-19T14:49:46.974Z,14.10
2019-02-19T14:52:35.524Z,15.05
2019-02-19T14:55:19.698Z,13.60
2019-02-19T14:58:08.055Z,12.88
2019-02-19T15:00:56.707Z,13.95
2019-02-19T15:03:48.140Z,13.90
2019-02-19T15:06:48.258Z,12.40
2019-02-19T15:09:45.813Z,11.50
2019-02-19T15:12:33.127Z,12.82
2019-02-19T15:15:24.320Z,12.90
2019-02-19T15:18:15.041Z,15.25
2019-02-19T15:21:12.270Z,12.23
2019-02-19T15:23:59.286Z,12.65
2019-02-19T15:26:58.624Z,16.70
2019-02-19T15:29:49.922Z,11.15
2019-02-19T15:32:34.783Z,9.95
2019-02-19T15:35:23.158Z,10.72
2019-02-19T15:38:00.811Z,9.80
2019-02-19T15:40:48.401Z,10.28
2019-02-19T15:43:41.220Z,9.05
2019-02-19T15:46:28.323Z,6.75
2019-02-19T15:49:10.596Z,6.17
2019-02-19T15:52:00.118Z,5.60
2019-02-19T15:54:47.638Z,5.08
2019-02-19T15:57:51.201Z,7.10
2019-02-19T16:00:36.214Z,7.40
2019-02-19T16:03:28.891Z,5.40
2019-02-19T16:06:37.096Z,4.60
2019-02-19T16:09:11.990Z,4.40
2019-02-19T16:12:03.456Z,4.37
2019-02-19T16:14:57.800Z,3.90
2019-02-19T16:17:52.276Z,4.78
2019-02-19T16:20:50.133Z,5.65
2019-02-19T16:23:37.361Z,4.47
2019-02-19T16:26:27.857Z,4.42
2019-02-19T16:29:08.288Z,5.40
2019-02-19T16:31:48.016Z,5.80
2019-02-19T16:34:39.324Z,7.55
2019-02-19T16:37:25.238Z,9.18
2019-02-19T16:40:22.848Z,8.68
2019-02-19T16:43:22.643Z,10.03
2019-02-19T16:46:02.075Z,11.70
2019-02-19T16:48:49.607Z,10.18
2019-02-19T16:51:27.949Z,10.68
2019-02-19T16:54:31.789Z,10.60
2019-02-19T16:57:09.591Z,10.32
2019-02-19T16:59:56.868Z,10.08
2019-02-19T17:02:44.041Z,9.80
2019-02-19T17:05:22.526Z,9.10
2019-02-19T17:08:10.871Z,12.40
2019-02-19T17:11:05.831Z,12.33
2019-02-19T17:13:58.293Z,12.50
2019-02-19T17:16:48.929Z,11.25
2019-02-19T17:19:36.292Z,10.55
2019-02-19T17:22:40.283Z,9.83
2019-02-19T17:25:31.576Z,11.05
2019-02-19T17:28:22.961Z,13.43
2019-02-19T17:31:17.669Z,11.65
2019-02-19T17:33:58.704Z,7.67
2019-02-19T17:36:47.389Z,8.88
2019-02-19T17:39:26.311Z,9.40
2019-02-19T17:42:14.746Z,8.43
2019-02-19T17:44:53.630Z,8.80
2019-02-19T17:47:42.047Z,9.78
2019-02-19T17:50:42.497Z,8.88
2019-02-19T17:53:40.191Z,8.45
2019-02-19T17:59:44.316Z,9.28
2019-02-19T18:02:35.796Z,14.87
2019-02-19T18:05:27.301Z,12.33
2019-02-19T18:08:03.610Z,8.63
2019-02-19T18:10:54.984Z,9.10
2019-02-19T18:13:42.483Z,10.32
2019-02-19T18:16:27.208Z,11.10
2019-02-19T18:18:57.246Z,10.88
2019-02-19T18:21:27.024Z,10.05
2019-02-19T18:24:15.657Z,16.10
2019-02-19T18:26:45.116Z,18.55
2019-02-19T18:29:14.973Z,15.68
2019-02-19T18:31:46.592Z,15.88
2019-02-19T18:34:16.117Z,13.90
2019-02-19T18:36:45.644Z,13.40
2019-02-19T18:39:15.666Z,15.35
2019-02-19T18:41:45.416Z,16.55
2019-02-19T18:44:14.858Z,15.72
2019-02-19T18:46:44.763Z,16.05
2019-02-19T18:49:14.639Z,13.88
2019-02-19T18:51:44.078Z,13.85
2019-02-19T18:54:13.533Z,15.60
2019-02-19T18:56:45.313Z,15.83
2019-02-19T18:59:15.014Z,18.10
2019-02-19T19:01:45.429Z,22.25
2019-02-19T19:04:14.938Z,22.37
2019-02-19T19:06:45.851Z,26.75
2019-02-19T19:09:15.260Z,30.40
2019-02-19T19:11:44.838Z,23.30
2019-02-19T19:14:14.935Z,19.57
2019-02-19T19:16:44.379Z,18.20
2019-02-19T19:19:14.544Z,15.20
2019-02-19T19:21:44.498Z,14.87
2019-02-19T19:24:14.281Z,15.45
2019-02-19T19:26:43.787Z,14.15
2019-02-19T19:29:13.213Z,12.43
2019-02-19T19:31:43.195Z,14.63
2019-02-19T19:34:12.811Z,16.10
2019-02-19T19:36:42.300Z,14.95
2019-02-19T19:39:12.046Z,13.55
2019-02-19T19:41:41.710Z,14.10
2019-02-19T19:44:11.571Z,13.58
2019-02-19T19:46:41.175Z,12.35
2019-02-19T19:49:11.019Z,12.25
2019-02-19T19:51:40.613Z,12.37
2019-02-19T19:54:11.465Z,12.03
2019-02-19T19:56:41.389Z,12.70
2019-02-19T19:59:11.851Z,12.07
2019-02-19T20:01:41.592Z,12.18
2019-02-19T20:04:11.257Z,12.13
2019-02-19T20:06:41.345Z,12.50
2019-02-19T20:09:14.721Z,11.25
2019-02-19T20:11:45.387Z,11.97
2019-02-19T20:14:18.660Z,11.80
2019-02-19T20:16:52.455Z,12.00
2019-02-19T20:19:23.507Z,12.53
2019-02-19T20:21:55.488Z,11.90
2019-02-19T20:24:26.890Z,11.22
2019-02-19T20:26:56.852Z,11.55
2019-02-19T20:29:26.588Z,11.88
2019-02-19T20:31:57.673Z,11.85
2019-02-19T20:34:27.198Z,11.57
2019-02-19T20:36:56.794Z,11.08
2019-02-19T20:39:26.702Z,11.38
2019-02-19T20:41:56.406Z,11.25
2019-02-19T20:44:45.056Z,11.78
2019-02-19T20:47:14.622Z,12.20
2019-02-19T20:49:45.877Z,13.00
2019-02-19T20:52:15.583Z,11.90
2019-02-19T20:54:47.263Z,11.25
2019-02-19T20:57:16.776Z,11.88
2019-02-19T20:59:46.356Z,11.70
2019-02-19T21:02:16.046Z,11.88
2019-02-19T21:04:48.307Z,10.98
2019-02-19T21:07:17.804Z,11.70
2019-02-19T21:09:47.276Z,10.90
2019-02-19T21:12:16.807Z,11.43
2019-02-19T21:14:46.982Z,11.97
2019-02-19T21:17:16.475Z,11.43
2019-02-19T21:19:45.949Z,10.78
2019-02-19T21:22:15.477Z,11.80
2019-02-19T21:24:44.976Z,10.82
2019-02-19T21:27:14.463Z,10.70
2019-02-19T21:29:43.931Z,12.60
2019-02-19T21:32:13.379Z,11.93
2019-02-19T21:34:42.859Z,11.00
2019-02-19T21:37:12.679Z,11.95
2019-02-19T21:39:42.138Z,12.28
2019-02-19T21:42:11.631Z,10.30
2019-02-19T21:44:41.368Z,11.73
2019-02-19T21:47:10.856Z,11.22
2019-02-19T21:49:40.285Z,11.70
2019-02-19T21:52:10.033Z,11.45
2019-02-19T21:54:39.469Z,11.80
2019-02-19T21:57:08.991Z,11.18
2019-02-19T21:59:38.429Z,12.68
2019-02-19T22:02:16.102Z,11.48
2019-02-19T22:04:39.338Z,12.10
2019-02-19T22:07:08.797Z,11.38
2019-02-19T22:09:38.536Z,11.25
2019-02-19T22:12:07.995Z,13.20
2019-02-19T22:14:37.479Z,12.63
2019-02-19T22:17:06.986Z,15.13
2019-02-19T22:19:36.427Z,11.78
2019-02-19T22:22:10.301Z,12.50
2019-02-19T22:24:39.772Z,13.08
2019-02-19T22:27:09.498Z,12.03
2019-02-19T22:29:39.657Z,12.63
2019-02-19T22:32:09.622Z,14.03
2019-02-19T22:34:39.137Z,13.70
2019-02-19T22:37:08.578Z,12.35
2019-02-19T22:39:38.023Z,12.82
2019-02-19T22:42:07.535Z,12.68
2019-02-19T22:44:36.975Z,12.70
2019-02-19T22:47:06.403Z,12.58
2019-02-19T22:49:35.836Z,13.00
2019-02-19T22:52:12.396Z,11.70
2019-02-19T22:54:43.917Z,12.10
2019-02-19T22:57:13.340Z,12.88
2019-02-19T22:59:42.782Z,13.45
2019-02-19T23:02:15.850Z,12.45
2019-02-19T23:04:45.629Z,13.08
2019-02-19T23:07:15.124Z,13.18
2019-02-19T23:09:44.797Z,13.15
2019-02-19T23:12:14.597Z,13.25
2019-02-19T23:14:44.044Z,14.55
2019-02-19T23:25:20.865Z,13.95
2019-02-19T23:27:50.373Z,13.70
2019-02-19T23:30:19.835Z,12.78
2019-02-19T23:32:49.303Z,13.35
2019-02-19T23:59:10.531Z,14.65
